Time;durP1;ratioP1;P1;durP2;ratioP2;P2;SDS_P1;SDS_P2;PMS_P1;PMS_P2;Temp;Humidity;BMP_temperature;BMP_pressure;BME280_temperature;BME280_humidity;BME280_pressure;Samples;Min_cycle;Max_cycle;Signal;HPM_P1;HPM_P2
2022/09/13 19:45:27;;;;;;;5.80;2.03;;;16.20;1.00;;;;;;5893126;23;20489;-46
2022/09/13 19:47:52;;;;;;;2.90;1.30;;;16.10;1.00;;;;;;4857422;29;20482;-45
2022/09/13 19:50:18;;;;;;;5.27;1.83;;;16.10;1.00;;;;;;4857816;29;20449;-44
2022/09/13 19:52:44;;;;;;;5.23;1.20;;;16.00;1.00;;;;;;4859618;29;20291;-46
2022/09/13 19:55:10;;;;;;;7.30;1.20;;;16.00;1.00;;;;;;4859615;29;20217;-45
2022/09/13 19:57:35;;;;;;;3.10;1.33;;;16.00;1.00;;;;;;4853501;29;20484;-45
2022/09/13 20:00:02;;;;;;;5.03;1.40;;;16.10;1.00;;;;;;4855968;29;20192;-44
2022/09/13 20:02:28;;;;;;;6.33;1.20;;;16.00;1.00;;;;;;4854841;29;20829;-44
2022/09/13 20:04:53;;;;;;;4.90;1.03;;;16.00;1.00;;;;;;4854917;29;20449;-45
2022/09/13 20:07:19;;;;;;;5.33;1.33;;;16.00;1.00;;;;;;4857626;29;20831;-48
2022/09/13 20:09:45;;;;;;;5.33;1.30;;;16.00;1.00;;;;;;4856093;29;20572;-45
2022/09/13 20:12:12;;;;;;;7.60;1.40;;;16.00;1.00;;;;;;4856733;29;20527;-45
2022/09/13 20:14:38;;;;;;;6.13;1.33;;;16.00;1.00;;;;;;4858357;29;20989;-45
2022/09/13 20:17:05;;;;;;;5.70;1.30;;;16.00;1.00;;;;;;4854694;29;20453;-44
2022/09/13 20:19:31;;;;;;;5.03;1.20;;;16.00;1.00;;;;;;4856985;29;20193;-46
2022/09/13 20:21:57;;;;;;;6.80;1.30;;;16.00;1.00;;;;;;4857389;29;20449;-44
2022/09/13 20:24:23;;;;;;;3.83;1.20;;;15.90;1.00;;;;;;4860956;29;20202;-45
2022/09/13 20:26:50;;;;;;;5.83;1.40;;;15.90;1.00;;;;;;4853317;29;20203;-44
2022/09/13 20:29:17;;;;;;;6.20;1.67;;;15.80;1.00;;;;;;4857575;29;20229;-45
2022/09/13 20:31:43;;;;;;;4.83;1.47;;;15.80;1.00;;;;;;4857607;29;20807;-45
2022/09/13 20:34:12;;;;;;;3.17;1.50;;;15.80;1.00;;;;;;4857707;29;20505;-45
2022/09/13 20:36:39;;;;;;;6.53;1.30;;;15.80;1.00;;;;;;4856106;29;20197;-45
2022/09/13 20:39:05;;;;;;;5.83;1.67;;;15.80;1.00;;;;;;4859259;29;20485;-44
2022/09/13 20:41:31;;;;;;;4.40;1.37;;;15.70;1.00;;;;;;4856588;29;20449;-44
2022/09/13 20:44:00;;;;;;;5.60;1.30;;;15.70;1.00;;;;;;4858455;29;20513;-45
2022/09/13 20:46:26;;;;;;;5.10;1.60;;;15.70;1.00;;;;;;4857355;29;20493;-47
2022/09/13 20:48:51;;;;;;;4.40;1.27;;;15.70;1.00;;;;;;4863299;29;20484;-47
2022/09/13 20:51:19;;;;;;;4.30;1.30;;;15.60;1.00;;;;;;4864080;29;20181;-47
2022/09/13 20:53:45;;;;;;;4.47;1.40;;;15.70;1.00;;;;;;4859391;29;20192;-47
2022/09/13 20:56:13;;;;;;;4.00;1.10;;;15.70;1.00;;;;;;4858424;29;20436;-47
2022/09/13 20:58:41;;;;;;;8.27;1.30;;;15.70;1.00;;;;;;4861365;29;21122;-48
2022/09/13 21:01:09;;;;;;;8.80;1.30;;;15.60;1.00;;;;;;4857455;29;20434;-47
2022/09/13 21:03:37;;;;;;;11.83;2.00;;;15.60;1.00;;;;;;4857022;29;20461;-46
2022/09/13 21:06:04;;;;;;;9.63;1.93;;;15.50;1.00;;;;;;4856565;29;20505;-47
2022/09/13 21:08:42;;;;;;;7.20;1.33;;;15.50;1.00;;;;;;4857294;29;20901;-47
2022/09/13 21:11:17;;;;;;;2.80;1.13;;;15.40;1.00;;;;;;4854850;29;20518;-47
2022/09/13 21:13:54;;;;;;;3.93;1.10;;;15.40;1.00;;;;;;4859006;29;20413;-47
2022/09/13 21:16:25;;;;;;;3.53;1.20;;;15.40;1.00;;;;;;4854833;29;20930;-47
2022/09/13 21:18:52;;;;;;;9.47;1.60;;;15.30;1.00;;;;;;4856704;29;21080;-48
2022/09/13 21:21:20;;;;;;;3.90;1.30;;;15.30;1.00;;;;;;4857236;29;20453;-47
2022/09/13 21:23:46;;;;;;;4.20;1.33;;;15.20;1.00;;;;;;4857933;29;20537;-47
2022/09/13 21:26:14;;;;;;;9.53;1.40;;;15.20;1.00;;;;;;4856762;29;20453;-47
2022/09/13 21:28:42;;;;;;;7.20;1.40;;;15.20;1.00;;;;;;4858194;29;20473;-57
2022/09/13 21:31:13;;;;;;;5.60;1.50;;;15.20;1.00;;;;;;4857439;29;20537;-47
2022/09/13 21:33:39;;;;;;;6.20;1.57;;;15.10;25.90;;;;;;4840085;29;20407;-47
2022/09/13 21:36:04;;;;;;;4.10;1.10;;;15.10;38.90;;;;;;4858373;29;20494;-47
2022/09/13 21:38:32;;;;;;;8.43;1.70;;;15.10;61.80;;;;;;4856631;29;20453;-47
2022/09/13 21:41:00;;;;;;;6.37;1.30;;;15.10;95.60;;;;;;4857441;29;20663;-47
2022/09/13 21:43:29;;;;;;;2.80;1.20;;;15.10;96.40;;;;;;4858239;29;20870;-50
2022/09/13 21:46:04;;;;;;;5.00;1.40;;;15.10;99.70;;;;;;4856836;29;20963;-47
2022/09/13 21:48:34;;;;;;;6.10;1.60;;;15.10;95.30;;;;;;4858743;29;20469;-47
2022/09/13 21:51:05;;;;;;;6.50;1.33;;;15.00;99.90;;;;;;4857497;29;20471;-47
2022/09/13 21:53:34;;;;;;;4.70;2.17;;;15.00;99.30;;;;;;4856727;29;20446;-47
2022/09/13 21:56:00;;;;;;;7.90;1.80;;;15.10;97.10;;;;;;4855128;29;20446;-47
2022/09/13 21:58:26;;;;;;;3.90;1.63;;;15.10;73.00;;;;;;4856309;29;20529;-46
2022/09/13 22:00:52;;;;;;;11.67;1.83;;;15.10;37.50;;;;;;4856532;29;20461;-47
2022/09/13 22:03:18;;;;;;;4.50;1.40;;;15.00;8.60;;;;;;4858230;29;20556;-47
2022/09/13 22:05:43;;;;;;;4.80;1.40;;;15.00;7.90;;;;;;4857252;29;20452;-47
2022/09/13 22:08:09;;;;;;;4.87;1.60;;;15.00;4.30;;;;;;4857564;29;20690;-47
2022/09/13 22:10:35;;;;;;;4.33;1.60;;;15.00;1.20;;;;;;4857592;29;20191;-47
2022/09/13 22:13:01;;;;;;;6.37;1.60;;;15.00;2.80;;;;;;4858844;29;20189;-47
2022/09/13 22:15:26;;;;;;;7.60;1.87;;;14.90;4.40;;;;;;4857472;29;20213;-47
2022/09/13 22:17:52;;;;;;;6.10;1.53;;;14.90;26.10;;;;;;4858247;29;20453;-47
2022/09/13 22:20:18;;;;;;;15.63;1.80;;;14.90;65.40;;;;;;4855536;29;20196;-47
2022/09/13 22:22:43;;;;;;;6.37;1.80;;;14.90;75.30;;;;;;4856765;29;20208;-47
2022/09/13 22:25:09;;;;;;;4.33;1.30;;;14.90;95.80;;;;;;4856729;29;20181;-46
2022/09/13 22:27:36;;;;;;;4.17;1.40;;;14.80;99.90;;;;;;4856476;29;20305;-47
2022/09/13 22:30:02;;;;;;;4.50;1.70;;;14.80;99.90;;;;;;4858243;29;20539;-46
2022/09/13 22:32:28;;;;;;;5.43;1.40;;;14.80;99.90;;;;;;4858589;29;20437;-47
2022/09/13 22:34:54;;;;;;;5.93;1.33;;;14.80;99.90;;;;;;4857675;29;20442;-47
2022/09/13 22:37:19;;;;;;;9.43;1.57;;;14.80;99.90;;;;;;4858052;29;20292;-47
2022/09/13 22:39:45;;;;;;;5.70;1.53;;;14.70;99.90;;;;;;4858064;29;20904;-47
2022/09/13 22:42:11;;;;;;;5.90;1.30;;;14.70;99.90;;;;;;4858001;29;20505;-52
2022/09/13 22:44:37;;;;;;;4.17;1.43;;;14.70;99.90;;;;;;4856804;29;20453;-47
2022/09/13 22:47:02;;;;;;;7.63;1.60;;;14.70;99.90;;;;;;4857982;29;20240;-47
2022/09/13 22:49:28;;;;;;;4.83;1.60;;;14.70;99.90;;;;;;4855043;29;20224;-47
2022/09/13 22:51:54;;;;;;;6.80;1.90;;;14.70;99.90;;;;;;4861574;29;20189;-47
2022/09/13 22:54:19;;;;;;;5.93;1.40;;;14.70;99.90;;;;;;4861523;29;20173;-47
2022/09/13 22:56:46;;;;;;;6.60;1.33;;;14.70;99.90;;;;;;4861473;29;20550;-47
2022/09/13 22:59:17;;;;;;;5.37;1.73;;;14.60;1.00;;;;;;4860855;29;20192;-47
2022/09/13 23:01:43;;;;;;;9.40;1.70;;;14.60;1.00;;;;;;4859605;29;20483;-47
2022/09/13 23:04:09;;;;;;;6.70;1.50;;;14.60;1.00;;;;;;4860345;29;20453;-47
2022/09/13 23:06:35;;;;;;;14.13;2.47;;;14.60;1.00;;;;;;4859205;29;20544;-47
2022/09/13 23:09:03;;;;;;;4.67;1.53;;;14.60;1.00;;;;;;4861226;29;20565;-47
2022/09/13 23:11:31;;;;;;;7.73;1.90;;;14.50;1.00;;;;;;4860253;29;20908;-47
2022/09/13 23:14:00;;;;;;;8.57;2.17;;;14.50;1.00;;;;;;4861559;29;20426;-47
2022/09/13 23:16:32;;;;;;;2.57;1.53;;;14.50;46.20;;;;;;4862152;29;20422;-47
2022/09/13 23:18:58;;;;;;;8.93;1.50;;;14.40;99.90;;;;;;4861421;29;20406;-47
2022/09/13 23:21:27;;;;;;;8.27;1.73;;;14.40;99.90;;;;;;4859748;29;20452;-47
2022/09/13 23:23:53;;;;;;;10.20;1.67;;;14.30;1.00;;;;;;4860973;29;20774;-47
2022/09/13 23:26:21;;;;;;;9.00;2.00;;;14.30;1.00;;;;;;4860242;29;20447;-47
2022/09/13 23:28:52;;;;;;;4.07;1.80;;;14.30;1.00;;;;;;4860948;29;20208;-51
2022/09/13 23:31:21;;;;;;;7.70;2.00;;;14.30;1.00;;;;;;4860520;29;20461;-47
2022/09/13 23:33:52;;;;;;;5.80;1.90;;;14.20;99.90;;;;;;4860668;29;20417;-47
2022/09/13 23:36:21;;;;;;;7.83;1.90;;;14.20;99.90;;;;;;4861068;29;20437;-48
2022/09/13 23:38:50;;;;;;;7.23;1.73;;;14.20;99.90;;;;;;4860763;29;20836;-47
2022/09/13 23:41:16;;;;;;;7.67;1.60;;;14.20;1.00;;;;;;4861083;29;20457;-46
2022/09/13 23:43:42;;;;;;;6.33;1.53;;;14.20;1.00;;;;;;4859176;29;20798;-47
2022/09/13 23:46:08;;;;;;;7.10;1.57;;;14.20;1.00;;;;;;4860554;29;20488;-47
2022/09/13 23:48:33;;;;;;;7.33;1.80;;;14.20;1.00;;;;;;4858341;29;20492;-47
2022/09/13 23:51:08;;;;;;;9.33;2.03;;;14.10;1.00;;;;;;4860052;29;20174;-47
2022/09/13 23:53:35;;;;;;;8.83;2.13;;;14.10;1.00;;;;;;4842159;29;20384;-47
2022/09/13 23:56:01;;;;;;;5.77;1.60;;;14.10;1.00;;;;;;4842230;29;20506;-47
2022/09/13 23:58:28;;;;;;;12.13;2.10;;;14.10;11.60;;;;;;4849240;29;20993;-47
